Time;durP1;ratioP1;P1;durP2;ratioP2;P2;SDS_P1;SDS_P2;PMS_P1;PMS_P2;Temp;Humidity;BMP_temperature;BMP_pressure;BME280_temperature;BME280_humidity;BME280_pressure;Samples;Min_cycle;Max_cycle;Signal;HPM_P1;HPM_P2
2021/03/10 00:04:33;;;;;;;33.22;20.77;;;;;;;1.06;50.51;97869.25;10037071;29;20049;-78
2021/03/10 00:09:53;;;;;;;34.72;21.40;;;;;;;1.06;50.45;97869.25;10024572;29;20045;-79
2021/03/10 00:15:13;;;;;;;36.50;22.08;;;;;;;1.05;50.57;97876.03;10024058;29;20082;-79
2021/03/10 00:20:33;;;;;;;34.50;22.15;;;;;;;1.09;50.88;97870.97;10011012;29;20121;-80
2021/03/10 00:25:52;;;;;;;29.35;20.38;;;;;;;1.15;50.45;97871.59;10049581;29;20074;-79
2021/03/10 00:31:12;;;;;;;34.97;21.83;;;;;;;1.17;50.44;97871.84;10023478;29;20045;-81
2021/03/10 00:36:32;;;;;;;33.03;20.52;;;;;;;1.21;50.36;97869.50;10010756;29;20101;-80
2021/03/10 00:41:52;;;;;;;36.83;22.33;;;;;;;1.21;50.83;97879.75;10011054;29;20041;-80
2021/03/10 00:47:12;;;;;;;35.58;22.83;;;;;;;1.23;50.63;97883.44;10010373;29;20046;-80
2021/03/10 00:52:32;;;;;;;35.30;22.33;;;;;;;1.25;50.66;97875.41;10010310;29;20052;-80
2021/03/10 00:57:51;;;;;;;36.35;22.65;;;;;;;1.26;50.97;97870.69;10010116;29;20050;-80
2021/03/10 01:03:11;;;;;;;35.13;22.13;;;;;;;1.30;50.97;97876.59;10009570;29;20057;-79
2021/03/10 01:08:31;;;;;;;36.47;23.25;;;;;;;1.33;50.87;97868.00;10009608;29;20042;-79
2021/03/10 01:13:51;;;;;;;31.27;21.63;;;;;;;1.33;51.23;97868.00;10022179;29;20054;-79
2021/03/10 01:19:10;;;;;;;34.90;23.27;;;;;;;1.32;50.78;97860.28;10009047;29;20474;-79
2021/03/10 01:24:30;;;;;;;35.13;23.67;;;;;;;1.30;51.04;97855.31;10009113;29;20592;-79
2021/03/10 01:29:50;;;;;;;37.58;23.50;;;;;;;1.33;51.08;97857.00;10008288;29;20053;-80
2021/03/10 01:35:11;;;;;;;35.83;22.95;;;;;;;1.29;51.06;97853.84;10034097;29;20050;-79
2021/03/10 01:40:31;;;;;;;36.58;22.75;;;;;;;1.30;51.37;97849.09;10021221;29;20548;-79
2021/03/10 01:45:51;;;;;;;33.80;21.88;;;;;;;1.30;51.05;97843.59;10008521;29;20105;-80
2021/03/10 01:51:11;;;;;;;36.47;22.42;;;;;;;1.30;51.30;97838.81;10020769;29;20045;-80
2021/03/10 01:56:31;;;;;;;36.70;24.00;;;;;;;1.25;51.29;97844.41;10007848;29;20089;-79
2021/03/10 02:01:51;;;;;;;37.05;23.13;;;;;;;1.21;51.68;97835.75;10020055;29;20101;-80
2021/03/10 02:07:36;;;;;;;34.42;23.48;;;;;;;1.10;52.08;97826.47;10033233;29;20513;-80
2021/03/10 02:13:21;;;;;;;36.50;22.73;;;;;;;1.00;52.19;97827.41;10046218;29;20057;-80
2021/03/10 02:18:46;;;;;;;35.40;22.70;;;;;;;0.96;52.19;97835.94;10022105;29;20046;-78
2021/03/10 02:24:56;;;;;;;33.80;21.55;;;;;;;0.99;52.16;97834.19;10032693;29;20062;-78
2021/03/10 02:30:32;;;;;;;32.90;22.98;;;;;;;0.96;52.16;97832.47;10047392;29;20053;-79
2021/03/10 02:36:01;;;;;;;35.67;23.67;;;;;;;0.92;52.32;97835.53;10007201;29;20057;-80
2021/03/10 02:41:21;;;;;;;34.50;21.80;;;;;;;0.78;52.25;97837.53;10019488;29;20049;-79
2021/03/10 02:46:41;;;;;;;37.03;22.20;;;;;;;0.64;52.87;97830.53;10031909;29;20069;-78
2021/03/10 02:52:00;;;;;;;36.50;22.63;;;;;;;0.57;52.71;97831.13;10019767;29;20056;-79
2021/03/10 02:57:20;;;;;;;32.00;22.33;;;;;;;0.51;52.71;97827.75;10006582;29;20069;-80
2021/03/10 03:02:40;;;;;;;34.28;22.83;;;;;;;0.53;52.96;97831.47;10006364;29;20466;-79
2021/03/10 03:08:01;;;;;;;33.55;23.13;;;;;;;0.58;53.55;97829.91;10006481;29;20049;-80
2021/03/10 03:13:21;;;;;;;38.17;22.88;;;;;;;0.70;53.56;97839.44;10018737;29;20053;-80
2021/03/10 03:18:41;;;;;;;34.47;23.02;;;;;;;0.74;53.28;97842.59;10006075;29;20042;-81
2021/03/10 03:24:01;;;;;;;36.95;23.70;;;;;;;0.76;53.26;97845.53;10018602;29;20082;-80
2021/03/10 03:29:27;;;;;;;37.45;26.58;;;;;;;0.71;53.25;97835.41;10019406;29;20097;-80
2021/03/10 03:34:46;;;;;;;40.75;26.15;;;;;;;0.52;53.72;97840.22;10006083;29;20046;-79
2021/03/10 03:40:08;;;;;;;39.13;25.75;;;;;;;0.35;53.98;97848.00;10005365;29;20045;-80
2021/03/10 03:45:28;;;;;;;43.05;27.65;;;;;;;0.22;54.01;97843.94;10005734;29;20049;-80
2021/03/10 03:50:48;;;;;;;40.03;26.10;;;;;;;0.15;53.87;97835.56;10008852;29;20437;-80
2021/03/10 03:56:07;;;;;;;46.92;26.73;;;;;;;0.08;54.41;97847.88;10037670;29;20045;-80
2021/03/10 04:01:27;;;;;;;38.85;26.30;;;;;;;0.01;54.77;97845.75;10025119;29;20478;-80
2021/03/10 04:06:50;;;;;;;44.40;28.00;;;;;;;-0.04;54.82;97850.06;10025017;29;20143;-80
2021/03/10 04:12:10;;;;;;;42.35;27.35;;;;;;;0.03;54.53;97850.72;10011309;29;20061;-79
2021/03/10 04:17:30;;;;;;;39.83;27.00;;;;;;;0.06;54.99;97844.91;10023925;29;20459;-80
2021/03/10 04:22:50;;;;;;;42.13;26.80;;;;;;;0.08;54.83;97841.66;10024483;29;20057;-80
2021/03/10 04:28:10;;;;;;;44.08;27.52;;;;;;;0.10;55.23;97848.13;10024641;29;20117;-79
2021/03/10 04:33:30;;;;;;;40.15;25.60;;;;;;;0.13;55.14;97854.56;10011875;29;20041;-80
2021/03/10 04:38:50;;;;;;;36.47;23.80;;;;;;;0.21;55.36;97852.69;10024270;29;20049;-79
2021/03/10 04:44:09;;;;;;;38.88;24.67;;;;;;;0.31;55.71;97858.56;10011321;29;20501;-77
2021/03/10 04:49:29;;;;;;;38.22;23.45;;;;;;;0.42;55.06;97861.84;10023707;29;20102;-79
2021/03/10 04:54:49;;;;;;;35.67;22.85;;;;;;;0.55;54.69;97866.63;10024121;29;20398;-79
2021/03/10 05:00:10;;;;;;;37.15;22.60;;;;;;;0.65;54.96;97869.72;10036344;29;20102;-79
2021/03/10 05:05:29;;;;;;;33.45;22.67;;;;;;;0.65;54.95;97858.75;10010837;29;20546;-79
2021/03/10 05:10:49;;;;;;;36.88;21.52;;;;;;;0.69;54.92;97865.41;10027166;29;20049;-81
2021/03/10 05:16:09;;;;;;;32.33;21.30;;;;;;;0.72;55.12;97861.63;10033299;29;20046;-78
2021/03/10 05:21:29;;;;;;;34.65;22.00;;;;;;;0.79;55.23;97866.50;10031902;29;20413;-79
2021/03/10 05:26:49;;;;;;;36.55;21.10;;;;;;;0.82;54.91;97872.94;10021927;29;20441;-79
2021/03/10 05:32:09;;;;;;;35.50;20.88;;;;;;;0.87;54.99;97872.13;10020832;29;20100;-79
2021/03/10 05:37:28;;;;;;;34.10;21.27;;;;;;;0.99;55.09;97875.41;10035996;29;20053;-79
2021/03/10 05:42:48;;;;;;;35.38;20.52;;;;;;;1.12;54.74;97883.66;10022041;29;20054;-78
2021/03/10 05:48:08;;;;;;;32.22;20.83;;;;;;;1.20;54.85;97884.53;10047271;29;20050;-80
2021/03/10 05:53:28;;;;;;;33.13;19.42;;;;;;;1.33;55.05;97895.50;10046641;29;20057;-78
2021/03/10 05:58:59;;;;;;;33.90;20.23;;;;;;;1.52;54.52;97902.94;10034003;29;20076;-80
2021/03/10 06:04:18;;;;;;;31.90;20.63;;;;;;;1.68;54.65;97899.13;10033442;29;20494;-80
2021/03/10 06:09:38;;;;;;;33.22;20.38;;;;;;;1.88;54.55;97908.72;10047399;29;20049;-79
2021/03/10 06:14:59;;;;;;;35.97;20.95;;;;;;;2.08;54.45;97915.56;10038124;29;20057;-80
2021/03/10 06:20:27;;;;;;;36.85;21.02;;;;;;;2.21;54.36;97916.25;10046459;29;20061;-80
2021/03/10 06:25:47;;;;;;;35.30;21.10;;;;;;;2.33;54.00;97922.28;10014555;29;20129;-79
2021/03/10 06:31:45;;;;;;;32.78;21.40;;;;;;;2.39;54.43;97928.38;10020610;29;20053;-79
2021/03/10 06:37:05;;;;;;;34.42;20.60;;;;;;;2.50;54.39;97935.66;9877438;30;20051;-77
2021/03/10 06:42:25;;;;;;;35.35;21.90;;;;;;;2.67;54.16;97943.56;10009437;29;20057;-80
2021/03/10 06:47:45;;;;;;;31.25;21.73;;;;;;;2.79;54.39;97939.25;10031678;29;20045;-79
2021/03/10 06:53:05;;;;;;;35.60;22.70;;;;;;;2.90;54.14;97952.06;9998915;29;20041;-79
2021/03/10 06:58:25;;;;;;;33.13;22.52;;;;;;;3.00;54.18;97962.06;10026901;29;20052;-80
2021/03/10 07:03:45;;;;;;;38.15;22.00;;;;;;;3.08;54.01;97976.66;10003933;29;20053;-79
2021/03/10 07:09:08;;;;;;;34.58;22.58;;;;;;;3.11;54.21;97970.06;10022986;29;20491;-80
2021/03/10 07:14:28;;;;;;;35.17;23.50;;;;;;;2.94;53.65;97989.03;9996315;29;20050;-78
2021/03/10 07:19:49;;;;;;;32.90;22.67;;;;;;;2.94;54.58;97978.00;10030982;29;20050;-80
2021/03/10 07:25:24;;;;;;;36.50;23.90;;;;;;;3.30;54.94;97986.41;10007234;29;20053;-80
2021/03/10 07:30:46;;;;;;;37.85;24.38;;;;;;;4.41;55.46;97986.69;10036694;29;20087;-78
2021/03/10 07:36:06;;;;;;;37.85;25.60;;;;;;;7.66;55.15;97981.41;10009956;29;20042;-79
2021/03/10 07:41:37;;;;;;;34.97;25.20;;;;;;;12.56;52.56;97991.28;10007705;29;20450;-78
2021/03/10 07:47:04;;;;;;;37.03;24.02;;;;;;;17.06;46.25;98004.72;10029824;29;20052;-79
2021/03/10 07:52:26;;;;;;;31.10;25.27;;;;;;;18.43;39.67;98000.09;10023192;29;20050;-79
2021/03/10 07:58:04;;;;;;;31.33;23.80;;;;;;;21.96;37.36;98000.06;10749940;24;20073;-86
2021/03/10 08:03:32;;;;;;;26.33;22.85;;;;;;;25.98;30.75;98010.56;10010077;29;20391;-91
2021/03/10 08:08:51;;;;;;;27.55;22.33;;;;;;;28.26;24.83;98009.91;10000012;29;20106;-81
2021/03/10 08:14:17;;;;;;;26.23;22.23;;;;;;;26.83;21.05;98025.69;9989865;29;20418;-79
2021/03/10 08:19:37;;;;;;;25.75;22.95;;;;;;;23.49;21.00;98020.81;9965190;29;20038;-82
2021/03/10 08:24:59;;;;;;;27.90;23.08;;;;;;;19.70;22.53;98018.47;9974875;29;20057;-82
2021/03/10 08:30:24;;;;;;;27.67;22.52;;;;;;;18.21;24.04;98019.69;10010909;29;20102;-81
2021/03/10 08:35:51;;;;;;;28.20;23.77;;;;;;;17.13;24.89;98031.84;9986661;29;20069;-81
2021/03/10 08:41:11;;;;;;;27.42;23.17;;;;;;;16.82;25.46;98027.59;10002293;29;20075;-81
2021/03/10 08:46:42;;;;;;;31.05;24.30;;;;;;;16.19;25.79;98024.50;10013756;29;20145;-79
2021/03/10 08:52:20;;;;;;;31.55;25.05;;;;;;;13.83;26.87;98028.50;9977431;29;20065;-79
2021/03/10 08:57:40;;;;;;;28.67;23.52;;;;;;;12.61;28.39;98026.56;10006411;29;20069;-80
2021/03/10 09:03:12;;;;;;;32.63;23.42;;;;;;;12.34;30.55;98021.34;9975694;29;20050;-81
2021/03/10 09:08:32;;;;;;;20.42;17.40;;;;;;;15.06;29.19;98031.28;9987476;29;20045;-79
2021/03/10 09:14:00;;;;;;;20.75;17.52;;;;;;;13.48;29.23;98028.50;9976540;29;20133;-80
2021/03/10 09:20:02;;;;;;;21.83;16.83;;;;;;;13.08;29.81;98023.91;9977551;29;20046;-79
2021/03/10 09:25:28;;;;;;;21.15;17.02;;;;;;;12.48;30.30;98013.16;9999316;29;20497;-79
2021/03/10 09:30:53;;;;;;;20.60;16.90;;;;;;;11.34;31.65;98028.66;9988447;29;20550;-81
2021/03/10 09:36:24;;;;;;;;;;;;;;;10.86;32.93;98020.44;9989612;29;20046;-79
2021/03/10 09:41:49;;;;;;;21.45;17.52;;;;;;;11.25;32.47;98023.84;10011907;29;20280;-78
2021/03/10 09:47:21;;;;;;;20.50;16.13;;;;;;;11.09;32.37;98031.81;9975480;29;20099;-79
2021/03/10 09:52:42;;;;;;;19.60;15.50;;;;;;;10.98;32.93;98034.50;9986365;29;20054;-79
2021/03/10 09:58:10;;;;;;;19.70;15.85;;;;;;;11.38;33.03;98025.41;10000806;29;20066;-79
2021/03/10 10:03:36;;;;;;;19.70;15.57;;;;;;;11.41;33.16;98027.78;9975095;29;20050;-76
2021/03/10 10:21:41;;;;;;;17.17;14.20;;;;;;;14.90;30.35;98033.19;10520860;23;20451;-78
2021/03/10 10:27:01;;;;;;;16.77;13.80;;;;;;;16.18;30.33;98027.94;10025248;29;20522;-79
2021/03/10 10:32:21;;;;;;;17.98;14.02;;;;;;;15.36;28.83;98035.00;11147279;23;20062;-83
2021/03/10 10:37:54;;;;;;;18.38;14.95;;;;;;;14.31;29.73;98044.63;10053247;29;20056;-75
2021/03/10 10:43:15;;;;;;;19.15;14.25;;;;;;;13.17;30.55;98046.22;10036342;29;20049;-78
2021/03/10 10:48:38;;;;;;;19.10;15.53;;;;;;;11.92;31.21;98055.66;10057997;29;20033;-83
2021/03/10 11:00:28;;;;;;;20.75;17.20;;;;;;;10.35;32.68;98053.09;10077511;23;20126;-78
2021/03/10 11:05:55;;;;;;;23.90;18.10;;;;;;;9.90;33.11;98060.91;10027847;29;20053;-79
2021/03/10 11:11:20;;;;;;;22.63;17.50;;;;;;;9.68;34.15;98054.41;10002879;29;20051;-78
2021/03/10 11:16:45;;;;;;;21.75;17.02;;;;;;;10.07;34.95;98040.53;10014881;29;20497;-76
2021/03/10 11:22:10;;;;;;;22.70;16.48;;;;;;;10.19;34.09;98052.59;10017962;29;20413;-77
2021/03/10 11:27:32;;;;;;;21.50;16.83;;;;;;;9.62;34.51;98044.81;10014534;29;20042;-78
2021/03/10 11:32:52;;;;;;;20.33;15.98;;;;;;;9.43;35.07;98023.19;10013995;29;20390;-78
2021/03/10 11:38:16;;;;;;;25.13;17.25;;;;;;;10.06;35.63;98024.41;10013664;29;20050;-78
2021/03/10 11:43:37;;;;;;;19.13;15.68;;;;;;;10.95;35.14;98019.66;10013562;29;20057;-78
2021/03/10 11:48:57;;;;;;;23.13;18.45;;;;;;;11.19;34.80;98012.25;10013642;29;20494;-79
2021/03/10 11:54:17;;;;;;;22.42;16.77;;;;;;;11.50;34.92;98014.34;10001111;29;20046;-77
2021/03/10 11:59:36;;;;;;;20.17;16.80;;;;;;;11.85;34.51;98014.63;10014059;29;20122;-79
2021/03/10 12:05:05;;;;;;;20.00;16.25;;;;;;;11.68;34.52;98013.53;10029156;29;20073;-79
2021/03/10 12:10:25;;;;;;;17.88;15.32;;;;;;;11.61;33.92;98011.63;10013944;29;20102;-78
2021/03/10 12:15:45;;;;;;;19.50;16.55;;;;;;;11.27;34.08;98001.63;10013448;29;20070;-79
2021/03/10 12:21:05;;;;;;;17.17;14.55;;;;;;;10.89;34.60;97994.84;10026165;29;20403;-79
2021/03/10 12:26:25;;;;;;;21.02;15.63;;;;;;;11.57;35.08;97994.56;10025262;29;20041;-78
2021/03/10 12:31:45;;;;;;;20.83;16.63;;;;;;;10.98;34.32;97998.19;9989322;29;20045;-78
2021/03/10 12:37:04;;;;;;;21.15;16.27;;;;;;;10.92;34.65;97978.25;9983660;29;20096;-77
2021/03/10 12:42:24;;;;;;;19.77;15.80;;;;;;;10.87;34.51;97985.59;10006819;29;20053;-77
2021/03/10 12:47:44;;;;;;;21.02;15.93;;;;;;;10.57;34.96;97973.00;9982260;29;20045;-76
2021/03/10 12:53:04;;;;;;;18.63;15.85;;;;;;;10.32;35.36;97974.06;10497343;24;20057;-79
2021/03/10 12:58:24;;;;;;;22.83;15.73;;;;;;;9.83;34.79;97982.97;9999286;29;20053;-80
2021/03/10 13:03:44;;;;;;;19.92;15.93;;;;;;;9.74;36.13;97976.03;10146333;23;20324;-80
2021/03/10 13:09:04;;;;;;;21.50;16.30;;;;;;;9.87;36.43;97967.28;10015526;29;20101;-78
2021/03/10 13:14:24;;;;;;;18.80;15.25;;;;;;;10.10;36.24;97978.00;10010352;29;20054;-79
2021/03/10 13:19:44;;;;;;;20.85;16.30;;;;;;;10.29;36.19;97961.28;10050056;29;20033;-79
2021/03/10 14:12:58;;;;;;;16.50;13.45;;;;;;;9.96;37.35;97965.81;12254240;23;20801;31
2021/03/10 14:45:47;;;;;;;14.77;12.05;;;;;;;9.15;37.67;97961.22;11720758;23;20232;31
2021/03/10 14:57:42;;;;;;;15.30;11.73;;;;;;;8.52;38.73;97955.66;10209756;24;20066;-81
2021/03/10 15:03:04;;;;;;;12.95;10.43;;;;;;;8.52;38.16;97950.06;10023855;29;20133;-81
2021/03/10 15:08:24;;;;;;;16.13;11.35;;;;;;;8.70;38.11;97943.16;10008572;29;20054;-81
2021/03/10 15:13:44;;;;;;;13.43;11.40;;;;;;;8.76;38.81;97940.81;10012799;29;20075;-80
2021/03/10 15:19:04;;;;;;;12.13;10.77;;;;;;;8.69;38.62;97938.91;10017014;29;20057;-81
2021/03/10 15:24:24;;;;;;;15.18;11.10;;;;;;;8.65;38.97;97940.63;10131403;24;20343;-80
2021/03/10 15:29:49;;;;;;;19.90;11.05;;;;;;;8.89;38.91;97929.34;11863632;23;20462;-78
2021/03/10 15:35:11;;;;;;;16.52;10.80;;;;;;;8.95;38.91;97933.88;10004855;29;20054;-79
2021/03/10 15:40:30;;;;;;;15.38;10.40;;;;;;;8.88;38.53;97936.22;10012222;29;20041;-79
2021/03/10 15:45:50;;;;;;;14.93;10.20;;;;;;;8.61;38.65;97935.50;10016069;29;20049;-81
2021/03/10 15:51:10;;;;;;;12.98;10.00;;;;;;;8.49;38.42;97934.53;10037803;29;20053;-79
2021/03/10 15:56:30;;;;;;;13.80;10.75;;;;;;;8.38;38.82;97924.66;10038910;29;20078;-78
2021/03/10 16:01:51;;;;;;;14.23;10.93;;;;;;;7.92;39.30;97927.97;10025664;29;20057;-79
2021/03/10 16:07:11;;;;;;;12.80;10.60;;;;;;;7.43;39.67;97932.34;10026711;29;20093;-81
2021/03/10 16:12:31;;;;;;;15.02;10.73;;;;;;;6.84;39.92;97938.53;10022378;29;20053;-79
2021/03/10 16:17:50;;;;;;;12.02;9.82;;;;;;;6.38;40.46;97926.97;10017049;29;20054;-79
2021/03/10 16:23:10;;;;;;;12.82;10.18;;;;;;;5.99;41.04;97917.34;10049525;29;20065;-80
2021/03/10 16:28:30;;;;;;;13.80;10.00;;;;;;;5.67;41.41;97924.22;10027749;29;20045;-80
2021/03/10 16:33:50;;;;;;;15.55;11.30;;;;;;;5.37;44.30;97925.03;10009662;29;20390;-80
2021/03/10 16:39:10;;;;;;;17.13;10.88;;;;;;;5.04;44.12;97912.31;10030503;29;20046;-80
2021/03/10 16:44:30;;;;;;;13.80;11.05;;;;;;;4.79;44.14;97923.19;10049029;29;20055;-82
2021/03/10 16:49:50;;;;;;;17.17;11.48;;;;;;;4.52;44.44;97928.28;10086785;23;20088;-78
2021/03/10 16:55:10;;;;;;;15.02;12.07;;;;;;;4.36;46.40;97930.28;10025572;29;20060;-78
2021/03/10 17:00:30;;;;;;;15.85;11.73;;;;;;;4.19;46.25;97938.34;10013523;29;20127;-79
2021/03/10 17:05:50;;;;;;;16.48;11.95;;;;;;;4.02;45.55;97944.34;10034157;29;20053;-78
2021/03/10 17:11:10;;;;;;;18.88;12.98;;;;;;;3.83;45.81;97944.63;10015885;29;20394;-78
2021/03/10 17:16:30;;;;;;;21.13;13.35;;;;;;;3.70;46.04;97934.44;10012257;29;20049;-78
2021/03/10 17:21:50;;;;;;;18.98;13.45;;;;;;;3.58;46.14;97944.31;10027209;29;20057;-79
2021/03/10 17:27:10;;;;;;;17.88;13.02;;;;;;;3.50;51.74;97943.50;10041637;29;20049;-78
2021/03/10 17:32:30;;;;;;;20.88;13.88;;;;;;;3.39;48.85;97950.06;10010646;29;20049;-78
2021/03/10 17:37:50;;;;;;;19.15;13.32;;;;;;;3.32;48.39;97944.47;10049176;29;20054;-78
2021/03/10 17:43:10;;;;;;;19.92;14.00;;;;;;;3.28;48.12;97949.59;10010287;29;20401;-78
2021/03/10 17:48:32;;;;;;;20.13;14.48;;;;;;;3.19;48.43;97952.84;10021178;29;20062;-82
2021/03/10 18:06:41;;;;;;;20.33;14.73;;;;;;;2.94;49.91;97944.91;11624377;23;20069;-84
2021/03/10 18:12:02;;;;;;;23.73;14.75;;;;;;;2.80;50.30;97955.28;10376771;24;20062;-80
2021/03/10 18:17:22;;;;;;;25.75;16.27;;;;;;;2.77;51.76;97959.09;9970851;29;20046;-78
2021/03/10 18:22:42;;;;;;;23.08;15.18;;;;;;;2.68;50.54;97970.56;9991652;29;20050;-77
2021/03/10 18:28:02;;;;;;;24.45;17.35;;;;;;;2.59;54.53;97966.25;10238980;24;20126;-78
2021/03/10 18:33:21;;;;;;;23.48;15.88;;;;;;;2.44;55.25;97974.38;10021028;29;20060;-77
2021/03/10 18:38:41;;;;;;;23.52;16.80;;;;;;;2.32;54.86;97975.91;10004373;29;20056;-77
2021/03/10 18:44:03;;;;;;;24.05;16.00;;;;;;;2.26;53.96;97972.50;10016263;29;20541;-76
2021/03/10 18:49:22;;;;;;;24.85;17.02;;;;;;;2.20;53.87;97975.38;10003580;29;20049;-77
2021/03/10 18:54:42;;;;;;;25.88;16.98;;;;;;;2.21;54.10;97976.13;10006460;29;20489;-79
2021/03/10 19:00:06;;;;;;;23.58;16.80;;;;;;;2.22;54.48;97966.56;10006926;29;20375;-75
2021/03/10 19:05:25;;;;;;;26.63;17.27;;;;;;;2.26;55.06;97962.22;10007262;29;20053;-78
2021/03/10 19:10:45;;;;;;;26.65;16.98;;;;;;;2.24;56.06;97962.03;10044690;29;20553;-77
2021/03/10 19:16:05;;;;;;;23.73;16.70;;;;;;;2.24;56.04;97955.78;10032100;29;20057;-77
2021/03/10 19:21:25;;;;;;;29.30;18.30;;;;;;;2.11;55.33;97953.78;10010882;29;20057;-78
2021/03/10 19:26:45;;;;;;;25.92;17.98;;;;;;;1.95;56.93;97944.59;10013818;29;20068;-77
2021/03/10 19:32:05;;;;;;;26.63;18.02;;;;;;;1.83;57.17;97945.34;10026166;29;20105;-76
2021/03/10 19:37:25;;;;;;;26.65;18.33;;;;;;;1.73;57.08;97950.53;10039199;29;20045;-78
2021/03/10 19:42:45;;;;;;;27.20;18.75;;;;;;;1.68;58.19;97945.91;10025839;29;20375;-77
2021/03/10 19:48:06;;;;;;;28.63;18.15;;;;;;;1.61;58.03;97946.53;10013090;29;20049;-78
2021/03/10 19:53:26;;;;;;;28.45;18.90;;;;;;;1.58;58.51;97928.34;10051314;29;20049;-79
2021/03/10 19:58:46;;;;;;;28.80;19.38;;;;;;;1.52;61.29;97931.19;10025408;29;20558;-80
2021/03/10 20:04:06;;;;;;;29.42;18.55;;;;;;;1.43;61.18;97924.09;10025098;29;20065;-78
2021/03/10 20:09:26;;;;;;;28.63;19.15;;;;;;;1.35;61.01;97922.50;10037721;29;20056;-79
2021/03/10 20:14:47;;;;;;;26.90;17.95;;;;;;;1.29;61.15;97919.13;10025130;29;20057;-78
2021/03/10 20:20:08;;;;;;;28.52;19.02;;;;;;;1.24;62.49;97919.94;10050374;29;20042;-80
2021/03/10 20:25:31;;;;;;;28.50;19.60;;;;;;;1.17;62.86;97910.34;10013742;29;20045;-79
2021/03/10 20:30:50;;;;;;;25.55;18.23;;;;;;;1.13;62.26;97918.13;10010511;29;20172;-78
2021/03/10 20:36:11;;;;;;;29.65;19.25;;;;;;;1.12;62.54;97908.41;10024113;29;20120;-78
2021/03/10 20:41:31;;;;;;;26.80;18.92;;;;;;;1.12;61.86;97909.16;10049651;29;20048;-79
2021/03/10 20:46:51;;;;;;;30.13;19.50;;;;;;;1.16;61.32;97900.59;10024529;29;20053;-78
2021/03/10 20:52:11;;;;;;;27.25;19.25;;;;;;;1.11;61.63;97890.44;10010864;29;20048;-79
2021/03/10 20:57:32;;;;;;;31.05;19.02;;;;;;;1.07;62.64;97887.25;10009807;29;20059;-78
2021/03/10 21:02:52;;;;;;;30.65;18.60;;;;;;;1.06;63.12;97880.25;10010274;29;20045;-78
2021/03/10 21:08:12;;;;;;;30.17;19.25;;;;;;;1.04;62.97;97866.31;10010321;29;20490;-77
2021/03/10 21:13:33;;;;;;;30.58;19.27;;;;;;;1.03;63.38;97864.84;10035463;29;20494;-78
2021/03/10 21:18:53;;;;;;;29.77;20.13;;;;;;;1.00;63.51;97854.91;10022915;29;20052;-76
2021/03/10 21:24:12;;;;;;;28.60;19.13;;;;;;;1.00;64.16;97844.63;10022738;29;20058;-75
2021/03/10 21:29:32;;;;;;;31.50;19.17;;;;;;;1.00;62.95;97843.91;10022883;29;20110;-83
2021/03/10 21:34:52;;;;;;;29.58;19.05;;;;;;;0.95;63.30;97841.97;10018612;29;20512;-80
2021/03/10 21:40:12;;;;;;;27.90;18.98;;;;;;;0.96;64.88;97824.22;10021740;29;20508;-79
2021/03/10 21:45:32;;;;;;;29.15;18.77;;;;;;;0.98;64.38;97829.94;10052970;29;20125;-78
2021/03/10 21:50:51;;;;;;;32.55;20.02;;;;;;;0.98;64.82;97821.69;10027624;29;20049;-79
2021/03/10 21:56:11;;;;;;;30.48;19.33;;;;;;;0.98;64.18;97810.72;10010229;29;20046;-79
2021/03/10 22:01:31;;;;;;;29.58;19.58;;;;;;;1.00;64.99;97808.16;10022110;29;20053;-80
2021/03/10 22:06:51;;;;;;;30.98;20.05;;;;;;;0.99;66.21;97799.19;10021326;29;20052;-80
2021/03/10 22:12:17;;;;;;;30.58;19.65;;;;;;;1.00;64.77;97794.41;10020833;29;20049;-79
2021/03/10 22:17:36;;;;;;;33.60;20.02;;;;;;;1.00;65.79;97794.41;10010419;29;20049;-80
2021/03/10 22:22:59;;;;;;;29.48;18.45;;;;;;;0.99;65.39;97781.94;10018756;29;20064;-79
2021/03/10 22:28:19;;;;;;;30.75;19.63;;;;;;;0.96;66.64;97774.75;10016582;29;20064;-79
2021/03/10 22:33:39;;;;;;;27.98;19.33;;;;;;;0.91;65.11;97765.34;10004735;29;20129;-79
2021/03/10 22:38:58;;;;;;;30.30;19.35;;;;;;;0.92;65.61;97761.31;10031383;29;20106;-79
2021/03/10 22:44:18;;;;;;;28.42;19.10;;;;;;;0.97;65.15;97763.25;10007299;29;20053;-79
2021/03/10 22:49:38;;;;;;;27.60;18.90;;;;;;;0.96;66.13;97756.25;10032638;29;20049;-79
2021/03/10 22:54:58;;;;;;;29.00;19.45;;;;;;;1.00;65.40;97753.19;10006758;29;20124;-79
2021/03/10 23:00:39;;;;;;;29.80;19.33;;;;;;;0.98;66.10;97731.00;10019788;29;20486;-79
2021/03/10 23:05:59;;;;;;;29.30;20.27;;;;;;;0.94;66.42;97733.31;10034540;29;20112;-79
2021/03/10 23:11:19;;;;;;;31.55;20.02;;;;;;;0.92;66.12;97738.59;10019776;29;20052;-79
2021/03/10 23:16:40;;;;;;;30.60;20.23;;;;;;;0.92;66.71;97722.09;10019723;29;20050;-79
2021/03/10 23:21:59;;;;;;;33.75;20.75;;;;;;;0.88;66.34;97707.97;10044612;29;20050;-79
2021/03/10 23:27:22;;;;;;;31.27;20.08;;;;;;;0.79;66.89;97704.38;10019370;29;20422;-79
2021/03/10 23:32:44;;;;;;;28.02;19.15;;;;;;;0.78;67.05;97700.16;10032545;29;20050;-79
2021/03/10 23:38:04;;;;;;;29.48;19.80;;;;;;;0.77;67.11;97689.66;10006611;29;20049;-79
2021/03/10 23:43:23;;;;;;;29.27;19.55;;;;;;;0.77;67.25;97673.19;10044714;29;20092;-79
2021/03/10 23:48:43;;;;;;;30.75;19.30;;;;;;;0.78;66.65;97661.69;10006176;29;20050;-79
2021/03/10 23:54:03;;;;;;;32.88;20.58;;;;;;;0.78;67.71;97650.69;10006259;29;20058;-79
2021/03/10 23:59:24;;;;;;;29.73;19.63;;;;;;;0.75;67.97;97645.50;10031691;29;20053;-79
